sensor_id;sensor_type;location;lat;lon;timestamp;P1;durP1;ratioP1;P2;durP2;ratioP2
36191;SDS011;22233;42.708;23.360;2023-08-24T00:01:15;13.75;;;12.50;;
36191;SDS011;22233;42.708;23.360;2023-08-24T00:03:43;13.48;;;12.10;;
36191;SDS011;22233;42.708;23.360;2023-08-24T00:06:11;14.27;;;12.88;;
36191;SDS011;22233;42.708;23.360;2023-08-24T00:08:37;14.75;;;13.23;;
36191;SDS011;22233;42.708;23.360;2023-08-24T00:11:02;14.95;;;12.30;;
36191;SDS011;22233;42.708;23.360;2023-08-24T00:13:28;14.05;;;12.80;;
36191;SDS011;22233;42.708;23.360;2023-08-24T00:15:53;12.48;;;11.27;;
36191;SDS011;22233;42.708;23.360;2023-08-24T00:18:19;12.30;;;11.00;;
36191;SDS011;22233;42.708;23.360;2023-08-24T00:20:47;12.18;;;10.90;;
36191;SDS011;22233;42.708;23.360;2023-08-24T00:23:13;12.55;;;11.18;;
36191;SDS011;22233;42.708;23.360;2023-08-24T00:25:38;14.15;;;11.63;;
36191;SDS011;22233;42.708;23.360;2023-08-24T00:28:06;13.82;;;12.23;;
36191;SDS011;22233;42.708;23.360;2023-08-24T00:30:31;13.05;;;11.55;;
36191;SDS011;22233;42.708;23.360;2023-08-24T00:32:57;12.70;;;11.43;;
36191;SDS011;22233;42.708;23.360;2023-08-24T00:35:22;13.23;;;11.60;;
36191;SDS011;22233;42.708;23.360;2023-08-24T00:37:48;16.00;;;11.63;;
36191;SDS011;22233;42.708;23.360;2023-08-24T00:40:13;13.77;;;11.88;;
36191;SDS011;22233;42.708;23.360;2023-08-24T00:45:13;15.30;;;13.70;;
36191;SDS011;22233;42.708;23.360;2023-08-24T00:47:39;14.60;;;13.00;;
36191;SDS011;22233;42.708;23.360;2023-08-24T00:52:33;15.63;;;14.02;;
36191;SDS011;22233;42.708;23.360;2023-08-24T00:54:59;15.38;;;13.40;;
36191;SDS011;22233;42.708;23.360;2023-08-24T00:57:25;15.85;;;13.73;;
36191;SDS011;22233;42.708;23.360;2023-08-24T00:59:52;14.02;;;12.57;;
36191;SDS011;22233;42.708;23.360;2023-08-24T01:02:18;14.85;;;13.25;;
36191;SDS011;22233;42.708;23.360;2023-08-24T01:04:44;15.48;;;13.57;;
36191;SDS011;22233;42.708;23.360;2023-08-24T01:07:11;15.20;;;13.63;;
36191;SDS011;22233;42.708;23.360;2023-08-24T01:09:38;14.57;;;13.13;;
36191;SDS011;22233;42.708;23.360;2023-08-24T01:14:40;14.43;;;12.50;;
36191;SDS011;22233;42.708;23.360;2023-08-24T01:17:12;14.27;;;12.88;;
36191;SDS011;22233;42.708;23.360;2023-08-24T01:19:42;15.15;;;12.70;;
36191;SDS011;22233;42.708;23.360;2023-08-24T01:25:12;13.43;;;11.93;;
36191;SDS011;22233;42.708;23.360;2023-08-24T01:27:42;17.75;;;12.65;;
36191;SDS011;22233;42.708;23.360;2023-08-24T01:30:08;16.38;;;13.30;;
36191;SDS011;22233;42.708;23.360;2023-08-24T01:32:35;16.85;;;12.45;;
36191;SDS011;22233;42.708;23.360;2023-08-24T01:35:05;16.27;;;12.80;;
36191;SDS011;22233;42.708;23.360;2023-08-24T01:37:34;13.95;;;12.30;;
36191;SDS011;22233;42.708;23.360;2023-08-24T01:40:05;13.70;;;12.02;;
36191;SDS011;22233;42.708;23.360;2023-08-24T01:42:39;14.63;;;11.70;;
36191;SDS011;22233;42.708;23.360;2023-08-24T01:45:28;12.75;;;11.23;;
36191;SDS011;22233;42.708;23.360;2023-08-24T01:50:21;12.77;;;10.63;;
36191;SDS011;22233;42.708;23.360;2023-08-24T01:52:47;11.52;;;10.43;;
36191;SDS011;22233;42.708;23.360;2023-08-24T01:55:13;14.55;;;10.43;;
36191;SDS011;22233;42.708;23.360;2023-08-24T01:57:40;11.53;;;10.53;;
36191;SDS011;22233;42.708;23.360;2023-08-24T02:00:06;11.50;;;10.35;;
36191;SDS011;22233;42.708;23.360;2023-08-24T02:02:32;12.38;;;10.88;;
36191;SDS011;22233;42.708;23.360;2023-08-24T02:04:59;11.30;;;10.05;;
36191;SDS011;22233;42.708;23.360;2023-08-24T02:07:25;14.25;;;10.75;;
36191;SDS011;22233;42.708;23.360;2023-08-24T02:09:50;12.40;;;10.95;;
36191;SDS011;22233;42.708;23.360;2023-08-24T02:12:15;12.30;;;10.63;;
36191;SDS011;22233;42.708;23.360;2023-08-24T02:14:41;11.63;;;9.80;;
36191;SDS011;22233;42.708;23.360;2023-08-24T02:17:06;11.25;;;10.15;;
36191;SDS011;22233;42.708;23.360;2023-08-24T02:19:32;12.35;;;11.05;;
36191;SDS011;22233;42.708;23.360;2023-08-24T02:21:57;12.38;;;11.10;;
36191;SDS011;22233;42.708;23.360;2023-08-24T02:24:22;11.75;;;10.57;;
36191;SDS011;22233;42.708;23.360;2023-08-24T02:26:48;11.77;;;10.57;;
36191;SDS011;22233;42.708;23.360;2023-08-24T02:29:13;12.65;;;10.68;;
36191;SDS011;22233;42.708;23.360;2023-08-24T02:31:39;11.48;;;10.38;;
36191;SDS011;22233;42.708;23.360;2023-08-24T02:34:05;10.70;;;9.80;;
36191;SDS011;22233;42.708;23.360;2023-08-24T02:36:31;12.80;;;11.45;;
36191;SDS011;22233;42.708;23.360;2023-08-24T02:38:58;13.07;;;11.50;;
36191;SDS011;22233;42.708;23.360;2023-08-24T02:41:24;13.43;;;11.38;;
36191;SDS011;22233;42.708;23.360;2023-08-24T02:43:49;11.77;;;10.57;;
36191;SDS011;22233;42.708;23.360;2023-08-24T02:46:17;12.13;;;10.93;;
36191;SDS011;22233;42.708;23.360;2023-08-24T02:48:43;13.87;;;10.07;;
36191;SDS011;22233;42.708;23.360;2023-08-24T02:51:09;11.52;;;10.40;;
36191;SDS011;22233;42.708;23.360;2023-08-24T02:53:35;12.25;;;11.05;;
36191;SDS011;22233;42.708;23.360;2023-08-24T02:56:02;12.55;;;11.27;;
36191;SDS011;22233;42.708;23.360;2023-08-24T02:58:28;13.05;;;11.50;;
36191;SDS011;22233;42.708;23.360;2023-08-24T03:00:54;14.50;;;12.00;;
36191;SDS011;22233;42.708;23.360;2023-08-24T03:03:20;16.63;;;14.93;;
36191;SDS011;22233;42.708;23.360;2023-08-24T03:05:59;16.75;;;15.05;;
36191;SDS011;22233;42.708;23.360;2023-08-24T03:08:25;23.58;;;16.95;;
36191;SDS011;22233;42.708;23.360;2023-08-24T03:10:51;21.42;;;16.25;;
36191;SDS011;22233;42.708;23.360;2023-08-24T03:13:17;18.85;;;14.77;;
36191;SDS011;22233;42.708;23.360;2023-08-24T03:15:43;21.27;;;16.25;;
36191;SDS011;22233;42.708;23.360;2023-08-24T03:18:10;16.23;;;14.50;;
36191;SDS011;22233;42.708;23.360;2023-08-24T03:20:37;21.88;;;14.95;;
36191;SDS011;22233;42.708;23.360;2023-08-24T03:23:03;17.25;;;15.45;;
36191;SDS011;22233;42.708;23.360;2023-08-24T03:25:28;19.42;;;15.43;;
36191;SDS011;22233;42.708;23.360;2023-08-24T03:27:54;17.02;;;14.25;;
36191;SDS011;22233;42.708;23.360;2023-08-24T03:30:20;17.17;;;14.68;;
36191;SDS011;22233;42.708;23.360;2023-08-24T03:35:12;17.13;;;14.68;;
36191;SDS011;22233;42.708;23.360;2023-08-24T03:37:38;20.95;;;16.30;;
36191;SDS011;22233;42.708;23.360;2023-08-24T03:40:03;16.67;;;14.80;;
36191;SDS011;22233;42.708;23.360;2023-08-24T03:42:31;17.00;;;15.20;;
36191;SDS011;22233;42.708;23.360;2023-08-24T03:44:56;17.25;;;14.52;;
36191;SDS011;22233;42.708;23.360;2023-08-24T03:47:24;15.82;;;14.00;;
36191;SDS011;22233;42.708;23.360;2023-08-24T03:49:49;18.38;;;15.85;;
36191;SDS011;22233;42.708;23.360;2023-08-24T03:52:15;17.95;;;14.32;;
36191;SDS011;22233;42.708;23.360;2023-08-24T03:54:40;17.90;;;14.48;;
36191;SDS011;22233;42.708;23.360;2023-08-24T03:57:06;16.10;;;13.82;;
36191;SDS011;22233;42.708;23.360;2023-08-24T03:59:31;21.80;;;14.43;;
36191;SDS011;22233;42.708;23.360;2023-08-24T04:01:56;17.95;;;14.90;;
36191;SDS011;22233;42.708;23.360;2023-08-24T04:04:26;15.48;;;13.98;;
36191;SDS011;22233;42.708;23.360;2023-08-24T04:06:52;15.00;;;13.48;;
36191;SDS011;22233;42.708;23.360;2023-08-24T04:09:17;17.35;;;14.57;;
36191;SDS011;22233;42.708;23.360;2023-08-24T04:11:43;20.17;;;13.75;;
36191;SDS011;22233;42.708;23.360;2023-08-24T04:14:09;18.98;;;14.45;;
36191;SDS011;22233;42.708;23.360;2023-08-24T04:16:34;17.38;;;14.75;;
36191;SDS011;22233;42.708;23.360;2023-08-24T04:19:00;20.95;;;14.05;;
36191;SDS011;22233;42.708;23.360;2023-08-24T04:21:25;15.95;;;14.27;;
36191;SDS011;22233;42.708;23.360;2023-08-24T04:23:51;16.45;;;14.10;;
36191;SDS011;22233;42.708;23.360;2023-08-24T04:26:16;14.68;;;13.15;;
36191;SDS011;22233;42.708;23.360;2023-08-24T04:28:41;16.90;;;13.18;;
36191;SDS011;22233;42.708;23.360;2023-08-24T04:31:08;19.02;;;14.60;;
36191;SDS011;22233;42.708;23.360;2023-08-24T04:33:33;15.50;;;13.73;;
36191;SDS011;22233;42.708;23.360;2023-08-24T04:35:59;17.90;;;15.10;;
36191;SDS011;22233;42.708;23.360;2023-08-24T04:38:24;26.27;;;14.90;;
36191;SDS011;22233;42.708;23.360;2023-08-24T04:40:53;17.92;;;15.10;;
36191;SDS011;22233;42.708;23.360;2023-08-24T04:43:20;16.45;;;14.55;;
36191;SDS011;22233;42.708;23.360;2023-08-24T04:45:47;16.75;;;13.63;;
36191;SDS011;22233;42.708;23.360;2023-08-24T04:48:20;15.75;;;14.07;;
36191;SDS011;22233;42.708;23.360;2023-08-24T04:50:46;17.02;;;14.85;;
36191;SDS011;22233;42.708;23.360;2023-08-24T04:53:13;17.35;;;14.80;;
36191;SDS011;22233;42.708;23.360;2023-08-24T04:55:40;22.40;;;15.10;;
36191;SDS011;22233;42.708;23.360;2023-08-24T04:58:06;28.70;;;16.67;;
36191;SDS011;22233;42.708;23.360;2023-08-24T05:00:32;21.50;;;15.10;;
36191;SDS011;22233;42.708;23.360;2023-08-24T05:02:58;20.60;;;15.90;;
36191;SDS011;22233;42.708;23.360;2023-08-24T05:05:24;22.65;;;15.82;;
36191;SDS011;22233;42.708;23.360;2023-08-24T05:07:49;20.33;;;15.48;;
36191;SDS011;22233;42.708;23.360;2023-08-24T05:10:15;20.45;;;16.33;;
36191;SDS011;22233;42.708;23.360;2023-08-24T05:12:40;22.00;;;16.83;;
36191;SDS011;22233;42.708;23.360;2023-08-24T05:15:05;19.67;;;17.30;;
36191;SDS011;22233;42.708;23.360;2023-08-24T05:17:31;17.20;;;15.50;;
36191;SDS011;22233;42.708;23.360;2023-08-24T05:19:57;17.10;;;14.50;;
36191;SDS011;22233;42.708;23.360;2023-08-24T05:22:23;15.82;;;14.23;;
36191;SDS011;22233;42.708;23.360;2023-08-24T05:24:49;14.65;;;13.15;;
36191;SDS011;22233;42.708;23.360;2023-08-24T05:27:14;23.40;;;14.80;;
36191;SDS011;22233;42.708;23.360;2023-08-24T05:29:40;19.45;;;14.50;;
36191;SDS011;22233;42.708;23.360;2023-08-24T05:32:06;16.38;;;14.40;;
36191;SDS011;22233;42.708;23.360;2023-08-24T05:34:31;20.88;;;14.18;;
36191;SDS011;22233;42.708;23.360;2023-08-24T05:36:57;17.30;;;14.55;;
36191;SDS011;22233;42.708;23.360;2023-08-24T05:39:22;20.73;;;14.57;;
36191;SDS011;22233;42.708;23.360;2023-08-24T05:41:51;18.58;;;15.05;;
36191;SDS011;22233;42.708;23.360;2023-08-24T05:44:17;19.38;;;14.95;;
36191;SDS011;22233;42.708;23.360;2023-08-24T05:46:46;17.67;;;13.13;;
36191;SDS011;22233;42.708;23.360;2023-08-24T05:49:12;21.73;;;16.73;;
36191;SDS011;22233;42.708;23.360;2023-08-24T05:51:37;17.50;;;14.80;;
36191;SDS011;22233;42.708;23.360;2023-08-24T05:54:03;18.55;;;15.30;;
36191;SDS011;22233;42.708;23.360;2023-08-24T05:56:28;38.22;;;19.20;;
36191;SDS011;22233;42.708;23.360;2023-08-24T05:58:54;24.90;;;17.00;;
36191;SDS011;22233;42.708;23.360;2023-08-24T06:01:20;23.00;;;16.33;;
36191;SDS011;22233;42.708;23.360;2023-08-24T06:03:45;29.27;;;16.17;;
36191;SDS011;22233;42.708;23.360;2023-08-24T06:06:11;16.60;;;14.88;;
36191;SDS011;22233;42.708;23.360;2023-08-24T06:08:37;19.42;;;14.50;;
36191;SDS011;22233;42.708;23.360;2023-08-24T06:11:02;18.85;;;13.43;;
36191;SDS011;22233;42.708;23.360;2023-08-24T06:13:28;13.90;;;12.45;;
36191;SDS011;22233;42.708;23.360;2023-08-24T06:15:53;15.52;;;13.07;;
36191;SDS011;22233;42.708;23.360;2023-08-24T06:18:21;14.32;;;12.57;;
36191;SDS011;22233;42.708;23.360;2023-08-24T06:20:47;16.55;;;12.80;;
36191;SDS011;22233;42.708;23.360;2023-08-24T06:23:18;17.98;;;13.70;;
36191;SDS011;22233;42.708;23.360;2023-08-24T06:25:44;14.20;;;12.75;;
36191;SDS011;22233;42.708;23.360;2023-08-24T06:28:10;12.88;;;11.57;;
36191;SDS011;22233;42.708;23.360;2023-08-24T06:30:39;13.45;;;12.10;;
36191;SDS011;22233;42.708;23.360;2023-08-24T06:33:12;16.98;;;12.68;;
36191;SDS011;22233;42.708;23.360;2023-08-24T06:35:37;17.63;;;14.73;;
36191;SDS011;22233;42.708;23.360;2023-08-24T06:38:03;16.67;;;14.65;;
36191;SDS011;22233;42.708;23.360;2023-08-24T06:40:29;16.45;;;14.20;;
36191;SDS011;22233;42.708;23.360;2023-08-24T06:42:55;19.85;;;15.55;;
36191;SDS011;22233;42.708;23.360;2023-08-24T06:45:21;16.17;;;14.55;;
36191;SDS011;22233;42.708;23.360;2023-08-24T06:47:47;19.02;;;16.02;;
36191;SDS011;22233;42.708;23.360;2023-08-24T06:50:12;17.38;;;15.68;;
36191;SDS011;22233;42.708;23.360;2023-08-24T06:52:38;19.58;;;14.27;;
36191;SDS011;22233;42.708;23.360;2023-08-24T06:55:04;17.05;;;15.30;;
36191;SDS011;22233;42.708;23.360;2023-08-24T06:57:30;18.48;;;16.55;;
36191;SDS011;22233;42.708;23.360;2023-08-24T06:59:55;18.20;;;15.35;;
36191;SDS011;22233;42.708;23.360;2023-08-24T07:02:21;16.33;;;14.63;;
36191;SDS011;22233;42.708;23.360;2023-08-24T07:04:46;17.10;;;15.32;;
36191;SDS011;22233;42.708;23.360;2023-08-24T07:07:12;17.65;;;15.88;;
36191;SDS011;22233;42.708;23.360;2023-08-24T07:09:37;17.40;;;14.43;;
36191;SDS011;22233;42.708;23.360;2023-08-24T07:12:03;17.35;;;15.13;;
36191;SDS011;22233;42.708;23.360;2023-08-24T07:14:31;17.40;;;14.95;;
36191;SDS011;22233;42.708;23.360;2023-08-24T07:16:57;15.77;;;14.23;;
36191;SDS011;22233;42.708;23.360;2023-08-24T07:19:22;16.85;;;15.05;;
36191;SDS011;22233;42.708;23.360;2023-08-24T07:21:48;18.80;;;15.02;;
36191;SDS011;22233;42.708;23.360;2023-08-24T07:24:13;16.63;;;14.60;;
36191;SDS011;22233;42.708;23.360;2023-08-24T07:26:40;22.55;;;15.48;;
36191;SDS011;22233;42.708;23.360;2023-08-24T07:29:07;19.13;;;15.07;;
36191;SDS011;22233;42.708;23.360;2023-08-24T07:31:32;18.95;;;14.07;;
36191;SDS011;22233;42.708;23.360;2023-08-24T07:33:58;21.67;;;15.05;;
36191;SDS011;22233;42.708;23.360;2023-08-24T07:36:23;17.50;;;14.40;;
36191;SDS011;22233;42.708;23.360;2023-08-24T07:38:49;16.02;;;13.77;;
36191;SDS011;22233;42.708;23.360;2023-08-24T07:41:15;21.25;;;13.98;;
36191;SDS011;22233;42.708;23.360;2023-08-24T07:43:43;15.18;;;12.90;;
36191;SDS011;22233;42.708;23.360;2023-08-24T07:46:08;16.95;;;12.95;;
36191;SDS011;22233;42.708;23.360;2023-08-24T07:48:34;16.02;;;13.10;;
36191;SDS011;22233;42.708;23.360;2023-08-24T07:51:00;15.93;;;13.38;;
36191;SDS011;22233;42.708;23.360;2023-08-24T07:53:25;16.35;;;13.50;;
36191;SDS011;22233;42.708;23.360;2023-08-24T07:55:52;15.93;;;11.77;;
36191;SDS011;22233;42.708;23.360;2023-08-24T07:58:19;15.73;;;13.57;;
36191;SDS011;22233;42.708;23.360;2023-08-24T08:00:44;15.88;;;12.95;;
36191;SDS011;22233;42.708;23.360;2023-08-24T08:03:09;16.33;;;12.38;;
36191;SDS011;22233;42.708;23.360;2023-08-24T08:05:35;16.52;;;13.15;;
36191;SDS011;22233;42.708;23.360;2023-08-24T08:08:00;14.32;;;12.75;;
36191;SDS011;22233;42.708;23.360;2023-08-24T08:10:26;14.40;;;12.60;;
36191;SDS011;22233;42.708;23.360;2023-08-24T08:12:51;15.77;;;12.23;;
36191;SDS011;22233;42.708;23.360;2023-08-24T08:15:17;13.02;;;11.70;;
36191;SDS011;22233;42.708;23.360;2023-08-24T08:17:42;16.55;;;11.82;;
36191;SDS011;22233;42.708;23.360;2023-08-24T08:20:08;12.82;;;11.27;;
36191;SDS011;22233;42.708;23.360;2023-08-24T08:22:33;14.10;;;12.35;;
36191;SDS011;22233;42.708;23.360;2023-08-24T08:25:03;13.70;;;11.80;;
36191;SDS011;22233;42.708;23.360;2023-08-24T08:27:29;14.73;;;12.03;;
36191;SDS011;22233;42.708;23.360;2023-08-24T08:29:55;16.80;;;11.98;;
36191;SDS011;22233;42.708;23.360;2023-08-24T08:32:21;12.95;;;11.73;;
36191;SDS011;22233;42.708;23.360;2023-08-24T08:34:46;14.55;;;11.65;;
36191;SDS011;22233;42.708;23.360;2023-08-24T08:37:12;15.93;;;11.95;;
36191;SDS011;22233;42.708;23.360;2023-08-24T08:39:37;14.57;;;11.35;;
36191;SDS011;22233;42.708;23.360;2023-08-24T08:42:03;13.10;;;11.80;;
36191;SDS011;22233;42.708;23.360;2023-08-24T08:44:31;12.35;;;11.07;;
36191;SDS011;22233;42.708;23.360;2023-08-24T08:46:57;12.70;;;11.38;;
36191;SDS011;22233;42.708;23.360;2023-08-24T08:49:24;13.23;;;11.40;;
36191;SDS011;22233;42.708;23.360;2023-08-24T08:51:49;12.90;;;11.70;;
36191;SDS011;22233;42.708;23.360;2023-08-24T08:54:16;16.65;;;11.95;;
36191;SDS011;22233;42.708;23.360;2023-08-24T08:56:42;18.05;;;11.20;;
36191;SDS011;22233;42.708;23.360;2023-08-24T08:59:08;12.15;;;10.90;;
36191;SDS011;22233;42.708;23.360;2023-08-24T09:01:37;14.07;;;11.70;;
36191;SDS011;22233;42.708;23.360;2023-08-24T09:04:03;13.15;;;10.65;;
36191;SDS011;22233;42.708;23.360;2023-08-24T09:06:31;13.20;;;11.57;;
36191;SDS011;22233;42.708;23.360;2023-08-24T09:08:56;12.45;;;11.15;;
36191;SDS011;22233;42.708;23.360;2023-08-24T09:11:22;14.20;;;10.98;;
36191;SDS011;22233;42.708;23.360;2023-08-24T09:13:48;13.00;;;11.73;;
36191;SDS011;22233;42.708;23.360;2023-08-24T09:16:14;14.80;;;11.73;;
36191;SDS011;22233;42.708;23.360;2023-08-24T09:18:42;12.32;;;11.10;;
36191;SDS011;22233;42.708;23.360;2023-08-24T09:21:15;12.52;;;11.02;;
36191;SDS011;22233;42.708;23.360;2023-08-24T09:23:44;12.98;;;11.05;;
36191;SDS011;22233;42.708;23.360;2023-08-24T09:26:16;16.77;;;11.25;;
36191;SDS011;22233;42.708;23.360;2023-08-24T09:28:51;15.18;;;11.75;;
36191;SDS011;22233;42.708;23.360;2023-08-24T09:31:17;14.18;;;11.13;;
36191;SDS011;22233;42.708;23.360;2023-08-24T09:33:42;15.63;;;12.18;;
36191;SDS011;22233;42.708;23.360;2023-08-24T09:36:10;13.45;;;10.95;;
36191;SDS011;22233;42.708;23.360;2023-08-24T09:38:45;16.38;;;12.43;;
36191;SDS011;22233;42.708;23.360;2023-08-24T09:41:12;12.82;;;11.38;;
36191;SDS011;22233;42.708;23.360;2023-08-24T09:43:38;12.25;;;11.02;;
36191;SDS011;22233;42.708;23.360;2023-08-24T09:46:05;14.82;;;11.82;;
36191;SDS011;22233;42.708;23.360;2023-08-24T09:48:31;13.10;;;11.82;;
36191;SDS011;22233;42.708;23.360;2023-08-24T09:50:57;13.40;;;11.90;;
36191;SDS011;22233;42.708;23.360;2023-08-24T09:53:25;19.00;;;11.43;;
36191;SDS011;22233;42.708;23.360;2023-08-24T09:55:54;12.32;;;11.13;;
36191;SDS011;22233;42.708;23.360;2023-08-24T09:58:24;11.88;;;10.55;;
36191;SDS011;22233;42.708;23.360;2023-08-24T10:00:51;12.60;;;11.10;;
36191;SDS011;22233;42.708;23.360;2023-08-24T10:03:21;12.93;;;11.70;;
36191;SDS011;22233;42.708;23.360;2023-08-24T10:05:56;12.73;;;11.43;;
36191;SDS011;22233;42.708;23.360;2023-08-24T10:08:27;12.68;;;11.52;;
36191;SDS011;22233;42.708;23.360;2023-08-24T10:10:58;12.50;;;11.20;;
36191;SDS011;22233;42.708;23.360;2023-08-24T10:16:01;12.30;;;11.10;;
36191;SDS011;22233;42.708;23.360;2023-08-24T10:18:29;12.52;;;11.20;;
36191;SDS011;22233;42.708;23.360;2023-08-24T10:20:55;10.70;;;9.63;;
36191;SDS011;22233;42.708;23.360;2023-08-24T10:23:22;11.25;;;10.27;;
36191;SDS011;22233;42.708;23.360;2023-08-24T10:28:15;17.02;;;10.63;;
36191;SDS011;22233;42.708;23.360;2023-08-24T10:30:42;13.13;;;10.80;;
36191;SDS011;22233;42.708;23.360;2023-08-24T10:33:09;10.85;;;9.70;;
36191;SDS011;22233;42.708;23.360;2023-08-24T10:38:01;10.57;;;9.67;;
36191;SDS011;22233;42.708;23.360;2023-08-24T10:40:31;10.48;;;9.30;;
36191;SDS011;22233;42.708;23.360;2023-08-24T10:42:58;11.60;;;10.10;;
36191;SDS011;22233;42.708;23.360;2023-08-24T10:45:28;10.85;;;9.85;;
36191;SDS011;22233;42.708;23.360;2023-08-24T10:48:22;14.52;;;12.73;;
36191;SDS011;22233;42.708;23.360;2023-08-24T10:54:00;13.60;;;11.85;;
36191;SDS011;22233;42.708;23.360;2023-08-24T10:56:36;12.85;;;11.50;;
36191;SDS011;22233;42.708;23.360;2023-08-24T10:59:16;15.43;;;10.52;;
36191;SDS011;22233;42.708;23.360;2023-08-24T11:01:43;11.90;;;9.15;;
36191;SDS011;22233;42.708;23.360;2023-08-24T11:04:20;10.90;;;9.70;;
36191;SDS011;22233;42.708;23.360;2023-08-24T11:06:55;13.73;;;11.40;;
36191;SDS011;22233;42.708;23.360;2023-08-24T11:09:24;11.48;;;10.27;;
36191;SDS011;22233;42.708;23.360;2023-08-24T11:12:00;11.63;;;10.30;;
36191;SDS011;22233;42.708;23.360;2023-08-24T11:14:26;10.07;;;9.02;;
36191;SDS011;22233;42.708;23.360;2023-08-24T11:16:59;9.88;;;8.82;;
36191;SDS011;22233;42.708;23.360;2023-08-24T11:19:27;10.93;;;10.02;;
36191;SDS011;22233;42.708;23.360;2023-08-24T11:21:52;11.40;;;9.52;;
36191;SDS011;22233;42.708;23.360;2023-08-24T11:24:18;10.60;;;9.60;;
36191;SDS011;22233;42.708;23.360;2023-08-24T11:26:45;12.00;;;10.68;;
36191;SDS011;22233;42.708;23.360;2023-08-24T11:29:11;10.95;;;9.85;;
36191;SDS011;22233;42.708;23.360;2023-08-24T11:31:37;12.83;;;10.13;;
36191;SDS011;22233;42.708;23.360;2023-08-24T11:34:04;15.15;;;9.80;;
36191;SDS011;22233;42.708;23.360;2023-08-24T11:36:30;10.75;;;9.68;;
36191;SDS011;22233;42.708;23.360;2023-08-24T11:38:57;11.10;;;9.97;;
36191;SDS011;22233;42.708;23.360;2023-08-24T11:41:24;11.75;;;10.55;;
36191;SDS011;22233;42.708;23.360;2023-08-24T11:43:58;11.88;;;10.55;;
36191;SDS011;22233;42.708;23.360;2023-08-24T11:46:25;14.82;;;11.35;;
36191;SDS011;22233;42.708;23.360;2023-08-24T11:48:52;11.40;;;10.23;;
36191;SDS011;22233;42.708;23.360;2023-08-24T11:51:18;12.30;;;10.98;;
36191;SDS011;22233;42.708;23.360;2023-08-24T11:53:44;17.85;;;11.85;;
36191;SDS011;22233;42.708;23.360;2023-08-24T12:01:06;14.48;;;10.30;;
36191;SDS011;22233;42.708;23.360;2023-08-24T12:03:33;14.15;;;10.50;;
36191;SDS011;22233;42.708;23.360;2023-08-24T12:06:02;13.65;;;10.93;;
36191;SDS011;22233;42.708;23.360;2023-08-24T12:08:40;10.88;;;9.13;;
36191;SDS011;22233;42.708;23.360;2023-08-24T12:11:10;9.77;;;8.88;;
36191;SDS011;22233;42.708;23.360;2023-08-24T12:13:46;11.43;;;9.77;;
36191;SDS011;22233;42.708;23.360;2023-08-24T12:16:18;11.88;;;9.35;;
36191;SDS011;22233;42.708;23.360;2023-08-24T12:18:55;16.55;;;10.07;;
36191;SDS011;22233;42.708;23.360;2023-08-24T12:21:22;12.90;;;9.40;;
36191;SDS011;22233;42.708;23.360;2023-08-24T12:23:55;13.30;;;9.63;;
36191;SDS011;22233;42.708;23.360;2023-08-24T12:26:25;16.57;;;9.23;;
36191;SDS011;22233;42.708;23.360;2023-08-24T12:28:51;10.07;;;8.75;;
36191;SDS011;22233;42.708;23.360;2023-08-24T12:31:17;11.40;;;10.15;;
36191;SDS011;22233;42.708;23.360;2023-08-24T12:34:00;15.88;;;10.48;;
36191;SDS011;22233;42.708;23.360;2023-08-24T12:36:33;14.73;;;11.02;;
36191;SDS011;22233;42.708;23.360;2023-08-24T12:39:01;12.43;;;10.70;;
36191;SDS011;22233;42.708;23.360;2023-08-24T12:41:29;14.23;;;10.88;;
36191;SDS011;22233;42.708;23.360;2023-08-24T12:43:54;17.08;;;10.85;;
36191;SDS011;22233;42.708;23.360;2023-08-24T12:46:20;15.40;;;10.45;;
36191;SDS011;22233;42.708;23.360;2023-08-24T12:48:45;14.10;;;11.05;;
36191;SDS011;22233;42.708;23.360;2023-08-24T12:51:11;14.32;;;11.63;;
36191;SDS011;22233;42.708;23.360;2023-08-24T12:53:37;16.83;;;11.23;;
36191;SDS011;22233;42.708;23.360;2023-08-24T12:56:02;11.68;;;10.50;;
36191;SDS011;22233;42.708;23.360;2023-08-24T12:58:28;11.52;;;10.23;;
36191;SDS011;22233;42.708;23.360;2023-08-24T13:00:53;11.32;;;9.93;;
36191;SDS011;22233;42.708;23.360;2023-08-24T13:03:18;13.45;;;10.70;;
36191;SDS011;22233;42.708;23.360;2023-08-24T13:05:44;11.85;;;9.98;;
36191;SDS011;22233;42.708;23.360;2023-08-24T13:08:09;11.65;;;9.95;;
36191;SDS011;22233;42.708;23.360;2023-08-24T13:10:35;10.98;;;9.95;;
36191;SDS011;22233;42.708;23.360;2023-08-24T13:13:02;14.23;;;9.98;;
36191;SDS011;22233;42.708;23.360;2023-08-24T13:15:28;13.68;;;11.93;;
36191;SDS011;22233;42.708;23.360;2023-08-24T13:17:54;11.50;;;9.75;;
36191;SDS011;22233;42.708;23.360;2023-08-24T13:20:19;10.93;;;9.73;;
36191;SDS011;22233;42.708;23.360;2023-08-24T13:22:44;11.07;;;9.38;;
36191;SDS011;22233;42.708;23.360;2023-08-24T13:25:10;15.85;;;10.00;;
36191;SDS011;22233;42.708;23.360;2023-08-24T13:27:35;10.80;;;9.85;;
36191;SDS011;22233;42.708;23.360;2023-08-24T13:30:03;11.48;;;9.75;;
36191;SDS011;22233;42.708;23.360;2023-08-24T13:32:30;15.98;;;10.15;;
36191;SDS011;22233;42.708;23.360;2023-08-24T13:34:55;10.05;;;9.15;;
36191;SDS011;22233;42.708;23.360;2023-08-24T13:37:21;13.38;;;10.43;;
36191;SDS011;22233;42.708;23.360;2023-08-24T13:39:47;17.02;;;9.98;;
36191;SDS011;22233;42.708;23.360;2023-08-24T13:42:12;13.80;;;9.57;;
36191;SDS011;22233;42.708;23.360;2023-08-24T13:44:38;12.77;;;10.17;;
36191;SDS011;22233;42.708;23.360;2023-08-24T13:47:04;10.68;;;9.68;;
36191;SDS011;22233;42.708;23.360;2023-08-24T13:49:29;11.38;;;10.20;;
36191;SDS011;22233;42.708;23.360;2023-08-24T13:51:55;11.95;;;9.93;;
36191;SDS011;22233;42.708;23.360;2023-08-24T13:54:20;13.10;;;10.73;;
36191;SDS011;22233;42.708;23.360;2023-08-24T13:56:46;10.90;;;9.80;;
36191;SDS011;22233;42.708;23.360;2023-08-24T13:59:13;12.13;;;10.02;;
36191;SDS011;22233;42.708;23.360;2023-08-24T14:01:40;11.40;;;10.27;;
36191;SDS011;22233;42.708;23.360;2023-08-24T14:04:06;12.25;;;10.32;;
36191;SDS011;22233;42.708;23.360;2023-08-24T14:06:31;15.13;;;10.13;;
36191;SDS011;22233;42.708;23.360;2023-08-24T14:08:59;15.23;;;11.30;;
36191;SDS011;22233;42.708;23.360;2023-08-24T14:11:27;12.25;;;10.57;;
36191;SDS011;22233;42.708;23.360;2023-08-24T14:16:18;12.13;;;10.93;;
36191;SDS011;22233;42.708;23.360;2023-08-24T14:18:44;15.35;;;11.27;;
36191;SDS011;22233;42.708;23.360;2023-08-24T14:21:10;14.15;;;11.23;;
36191;SDS011;22233;42.708;23.360;2023-08-24T14:23:36;14.80;;;12.02;;
36191;SDS011;22233;42.708;23.360;2023-08-24T14:26:01;16.93;;;11.97;;
36191;SDS011;22233;42.708;23.360;2023-08-24T14:28:48;15.20;;;11.67;;
36191;SDS011;22233;42.708;23.360;2023-08-24T14:31:16;15.88;;;12.35;;
36191;SDS011;22233;42.708;23.360;2023-08-24T14:33:42;22.75;;;12.02;;
36191;SDS011;22233;42.708;23.360;2023-08-24T14:36:07;20.77;;;12.80;;
36191;SDS011;22233;42.708;23.360;2023-08-24T14:38:34;28.35;;;15.27;;
36191;SDS011;22233;42.708;23.360;2023-08-24T14:40:59;21.98;;;13.07;;
36191;SDS011;22233;42.708;23.360;2023-08-24T14:43:28;19.10;;;12.35;;